Glouster, Ohio
Current Conditions -  °F | °C
As of 9:35 AM on Thursday 30 Oct 2014 (Local Time) from KUNI Reporting Station
Broken Clouds Broken Clouds  
Wind Chill: 38°   Ceiling: 4900
Heat Index: 38°   Visibility: 10mi
Dew Point: 36°   Wind: 0mph
Humidity: 91%   Direction: NA
Pressure: 30.16"   Gusts: NA
Location:  39.5°N, 82.08°W
Report Text: KUNI 301335Z AUTO 00000KT 10SM BKN049 03/02 A3016 RMK AO2 T00340020
Loading
Personal Weather Stations






























Interactive Weather Map
Tropical Storm Tracking
New forecast layout! Learn more

10-Day Weather Forecast

Advertisements
Track Severe Weather on mobile